sensor_id;sensor_type;location;lat;lon;timestamp;pressure;altitude;pressure_sealevel;temperature
44429;BMP180;30134;47.866;-4.222;2022-10-16T00:01:30;101005.00;;;27.80
44429;BMP180;30134;47.866;-4.222;2022-10-16T00:03:59;101003.00;;;27.80
44429;BMP180;30134;47.866;-4.222;2022-10-16T00:06:27;100998.00;;;27.80
44429;BMP180;30134;47.866;-4.222;2022-10-16T00:08:54;101017.00;;;27.80
44429;BMP180;30134;47.866;-4.222;2022-10-16T00:11:31;101030.00;;;27.80
44429;BMP180;30134;47.866;-4.222;2022-10-16T00:14:04;101022.00;;;27.80
44429;BMP180;30134;47.866;-4.222;2022-10-16T00:16:33;101027.00;;;27.80
44429;BMP180;30134;47.866;-4.222;2022-10-16T00:18:59;101020.00;;;27.80
44429;BMP180;30134;47.866;-4.222;2022-10-16T00:21:30;101036.00;;;27.80
44429;BMP180;30134;47.866;-4.222;2022-10-16T00:24:03;101027.00;;;27.80
44429;BMP180;30134;47.866;-4.222;2022-10-16T00:26:33;101035.00;;;27.80
44429;BMP180;30134;47.866;-4.222;2022-10-16T00:29:00;101029.00;;;27.80
44429;BMP180;30134;47.866;-4.222;2022-10-16T00:31:27;101020.00;;;27.80
44429;BMP180;30134;47.866;-4.222;2022-10-16T00:33:53;101026.00;;;27.90
44429;BMP180;30134;47.866;-4.222;2022-10-16T00:36:24;101031.00;;;27.80
44429;BMP180;30134;47.866;-4.222;2022-10-16T00:38:53;101032.00;;;27.90
44429;BMP180;30134;47.866;-4.222;2022-10-16T00:41:22;101037.00;;;27.90
44429;BMP180;30134;47.866;-4.222;2022-10-16T00:43:56;101045.00;;;27.80
44429;BMP180;30134;47.866;-4.222;2022-10-16T00:49:16;101050.00;;;27.90
44429;BMP180;30134;47.866;-4.222;2022-10-16T00:51:50;101054.00;;;27.90
44429;BMP180;30134;47.866;-4.222;2022-10-16T00:54:27;101055.00;;;27.80
44429;BMP180;30134;47.866;-4.222;2022-10-16T00:56:58;101055.00;;;27.80
44429;BMP180;30134;47.866;-4.222;2022-10-16T00:59:34;101057.00;;;27.90
44429;BMP180;30134;47.866;-4.222;2022-10-16T01:02:04;101050.00;;;27.80
44429;BMP180;30134;47.866;-4.222;2022-10-16T01:04:47;101053.00;;;27.80
44429;BMP180;30134;47.866;-4.222;2022-10-16T01:07:36;101057.00;;;27.90
44429;BMP180;30134;47.866;-4.222;2022-10-16T01:15:54;101059.00;;;27.90
44429;BMP180;30134;47.866;-4.222;2022-10-16T01:18:45;101059.00;;;27.90
44429;BMP180;30134;47.866;-4.222;2022-10-16T01:21:31;101059.00;;;27.80
44429;BMP180;30134;47.866;-4.222;2022-10-16T01:27:15;101044.00;;;27.80
44429;BMP180;30134;47.866;-4.222;2022-10-16T01:30:12;101050.00;;;27.90
44429;BMP180;30134;47.866;-4.222;2022-10-16T01:33:17;101051.00;;;27.80
44429;BMP180;30134;47.866;-4.222;2022-10-16T01:35:52;101037.00;;;27.80
44429;BMP180;30134;47.866;-4.222;2022-10-16T01:38:34;101044.00;;;27.80
44429;BMP180;30134;47.866;-4.222;2022-10-16T01:41:12;101048.00;;;27.80
44429;BMP180;30134;47.866;-4.222;2022-10-16T01:43:50;101042.00;;;27.80
44429;BMP180;30134;47.866;-4.222;2022-10-16T01:46:20;101058.00;;;27.90
44429;BMP180;30134;47.866;-4.222;2022-10-16T01:48:48;101042.00;;;27.80
44429;BMP180;30134;47.866;-4.222;2022-10-16T01:51:20;101038.00;;;27.90
44429;BMP180;30134;47.866;-4.222;2022-10-16T01:53:53;101046.00;;;27.80
44429;BMP180;30134;47.866;-4.222;2022-10-16T01:56:21;101038.00;;;27.80
44429;BMP180;30134;47.866;-4.222;2022-10-16T01:59:04;101040.00;;;27.80
44429;BMP180;30134;47.866;-4.222;2022-10-16T02:01:34;101047.00;;;27.80
44429;BMP180;30134;47.866;-4.222;2022-10-16T02:04:13;101051.00;;;27.80
44429;BMP180;30134;47.866;-4.222;2022-10-16T02:06:41;101049.00;;;27.80
44429;BMP180;30134;47.866;-4.222;2022-10-16T02:09:07;101049.00;;;27.90
44429;BMP180;30134;47.866;-4.222;2022-10-16T02:11:35;101054.00;;;27.80
44429;BMP180;30134;47.866;-4.222;2022-10-16T02:14:05;101051.00;;;27.80
44429;BMP180;30134;47.866;-4.222;2022-10-16T02:16:46;101042.00;;;27.80
44429;BMP180;30134;47.866;-4.222;2022-10-16T02:19:17;101032.00;;;27.80
44429;BMP180;30134;47.866;-4.222;2022-10-16T02:24:32;101047.00;;;27.80
44429;BMP180;30134;47.866;-4.222;2022-10-16T02:27:43;101044.00;;;27.80
44429;BMP180;30134;47.866;-4.222;2022-10-16T02:30:49;101045.00;;;27.80
44429;BMP180;30134;47.866;-4.222;2022-10-16T02:33:18;101044.00;;;27.80
44429;BMP180;30134;47.866;-4.222;2022-10-16T02:35:46;101037.00;;;27.80
44429;BMP180;30134;47.866;-4.222;2022-10-16T02:38:15;101039.00;;;27.80
44429;BMP180;30134;47.866;-4.222;2022-10-16T02:40:43;101035.00;;;27.80
44429;BMP180;30134;47.866;-4.222;2022-10-16T02:43:10;101031.00;;;27.80
44429;BMP180;30134;47.866;-4.222;2022-10-16T02:45:36;101028.00;;;27.80
44429;BMP180;30134;47.866;-4.222;2022-10-16T02:48:03;101023.00;;;27.80
44429;BMP180;30134;47.866;-4.222;2022-10-16T02:50:30;101028.00;;;27.80
44429;BMP180;30134;47.866;-4.222;2022-10-16T02:52:56;101036.00;;;27.80
44429;BMP180;30134;47.866;-4.222;2022-10-16T02:55:23;101034.00;;;27.80
44429;BMP180;30134;47.866;-4.222;2022-10-16T02:57:49;101037.00;;;27.80
44429;BMP180;30134;47.866;-4.222;2022-10-16T03:00:17;101049.00;;;27.80
44429;BMP180;30134;47.866;-4.222;2022-10-16T03:02:44;101044.00;;;27.80
44429;BMP180;30134;47.866;-4.222;2022-10-16T03:05:10;101044.00;;;27.80
44429;BMP180;30134;47.866;-4.222;2022-10-16T03:07:37;101045.00;;;27.80
44429;BMP180;30134;47.866;-4.222;2022-10-16T03:10:04;101051.00;;;27.80
44429;BMP180;30134;47.866;-4.222;2022-10-16T03:12:31;101046.00;;;27.80
44429;BMP180;30134;47.866;-4.222;2022-10-16T03:14:57;101046.00;;;27.80
44429;BMP180;30134;47.866;-4.222;2022-10-16T03:17:24;101039.00;;;27.80
44429;BMP180;30134;47.866;-4.222;2022-10-16T03:19:51;101037.00;;;27.80
44429;BMP180;30134;47.866;-4.222;2022-10-16T03:22:17;101036.00;;;27.80
44429;BMP180;30134;47.866;-4.222;2022-10-16T03:24:44;101032.00;;;27.80
44429;BMP180;30134;47.866;-4.222;2022-10-16T03:27:10;101028.00;;;27.80
44429;BMP180;30134;47.866;-4.222;2022-10-16T03:29:36;101027.00;;;27.80
44429;BMP180;30134;47.866;-4.222;2022-10-16T03:32:03;101022.00;;;27.80
44429;BMP180;30134;47.866;-4.222;2022-10-16T03:34:29;101034.00;;;27.80
44429;BMP180;30134;47.866;-4.222;2022-10-16T03:36:56;101037.00;;;27.80
44429;BMP180;30134;47.866;-4.222;2022-10-16T03:39:22;101040.00;;;27.80
44429;BMP180;30134;47.866;-4.222;2022-10-16T03:41:49;101036.00;;;27.80
44429;BMP180;30134;47.866;-4.222;2022-10-16T03:44:15;101038.00;;;27.80
44429;BMP180;30134;47.866;-4.222;2022-10-16T03:46:41;101036.00;;;27.80
44429;BMP180;30134;47.866;-4.222;2022-10-16T03:49:08;101031.00;;;27.80
44429;BMP180;30134;47.866;-4.222;2022-10-16T03:51:34;101027.00;;;27.80
44429;BMP180;30134;47.866;-4.222;2022-10-16T03:54:01;101026.00;;;27.80
44429;BMP180;30134;47.866;-4.222;2022-10-16T03:56:27;101029.00;;;27.80
44429;BMP180;30134;47.866;-4.222;2022-10-16T03:58:53;101031.00;;;27.80
44429;BMP180;30134;47.866;-4.222;2022-10-16T04:01:20;101024.00;;;27.80
44429;BMP180;30134;47.866;-4.222;2022-10-16T04:03:46;101022.00;;;27.80
44429;BMP180;30134;47.866;-4.222;2022-10-16T04:06:12;101034.00;;;27.80
44429;BMP180;30134;47.866;-4.222;2022-10-16T04:08:39;101021.00;;;27.80
44429;BMP180;30134;47.866;-4.222;2022-10-16T04:11:07;101016.00;;;27.80
44429;BMP180;30134;47.866;-4.222;2022-10-16T04:13:34;101016.00;;;27.80
44429;BMP180;30134;47.866;-4.222;2022-10-16T04:16:00;101025.00;;;27.80
44429;BMP180;30134;47.866;-4.222;2022-10-16T04:18:27;101036.00;;;27.80
44429;BMP180;30134;47.866;-4.222;2022-10-16T04:20:54;101033.00;;;27.80
44429;BMP180;30134;47.866;-4.222;2022-10-16T04:23:21;101028.00;;;27.80
44429;BMP180;30134;47.866;-4.222;2022-10-16T04:25:48;101025.00;;;27.80
44429;BMP180;30134;47.866;-4.222;2022-10-16T04:28:15;101033.00;;;27.80
44429;BMP180;30134;47.866;-4.222;2022-10-16T04:30:41;101035.00;;;27.80
44429;BMP180;30134;47.866;-4.222;2022-10-16T04:33:09;101030.00;;;27.80
44429;BMP180;30134;47.866;-4.222;2022-10-16T04:35:36;101025.00;;;27.80
44429;BMP180;30134;47.866;-4.222;2022-10-16T04:38:02;101025.00;;;27.80
44429;BMP180;30134;47.866;-4.222;2022-10-16T04:40:29;101020.00;;;27.80
44429;BMP180;30134;47.866;-4.222;2022-10-16T04:42:59;101015.00;;;27.80
44429;BMP180;30134;47.866;-4.222;2022-10-16T04:45:25;101017.00;;;27.80
44429;BMP180;30134;47.866;-4.222;2022-10-16T04:47:52;101014.00;;;27.80
44429;BMP180;30134;47.866;-4.222;2022-10-16T04:50:18;101017.00;;;27.80
44429;BMP180;30134;47.866;-4.222;2022-10-16T04:52:47;101006.00;;;27.80
44429;BMP180;30134;47.866;-4.222;2022-10-16T04:55:14;101010.00;;;27.80
44429;BMP180;30134;47.866;-4.222;2022-10-16T04:57:40;101011.00;;;27.80
44429;BMP180;30134;47.866;-4.222;2022-10-16T05:00:08;101013.00;;;27.70
44429;BMP180;30134;47.866;-4.222;2022-10-16T05:02:34;101014.00;;;27.80
44429;BMP180;30134;47.866;-4.222;2022-10-16T05:05:01;101021.00;;;27.80
44429;BMP180;30134;47.866;-4.222;2022-10-16T05:07:27;101020.00;;;27.80
44429;BMP180;30134;47.866;-4.222;2022-10-16T05:09:54;101021.00;;;27.80
44429;BMP180;30134;47.866;-4.222;2022-10-16T05:12:20;101023.00;;;27.80
44429;BMP180;30134;47.866;-4.222;2022-10-16T05:14:46;101022.00;;;27.70
44429;BMP180;30134;47.866;-4.222;2022-10-16T05:17:13;101026.00;;;27.70
44429;BMP180;30134;47.866;-4.222;2022-10-16T05:19:39;101018.00;;;27.70
44429;BMP180;30134;47.866;-4.222;2022-10-16T05:22:05;101018.00;;;27.70
44429;BMP180;30134;47.866;-4.222;2022-10-16T05:24:32;101017.00;;;27.70
44429;BMP180;30134;47.866;-4.222;2022-10-16T05:26:58;101017.00;;;27.70
44429;BMP180;30134;47.866;-4.222;2022-10-16T05:29:25;101022.00;;;27.70
44429;BMP180;30134;47.866;-4.222;2022-10-16T05:31:52;101029.00;;;27.70
44429;BMP180;30134;47.866;-4.222;2022-10-16T05:34:20;101026.00;;;27.70
44429;BMP180;30134;47.866;-4.222;2022-10-16T05:36:47;101028.00;;;27.70
44429;BMP180;30134;47.866;-4.222;2022-10-16T05:39:16;101029.00;;;27.70
44429;BMP180;30134;47.866;-4.222;2022-10-16T05:41:43;101027.00;;;27.70
44429;BMP180;30134;47.866;-4.222;2022-10-16T05:44:10;101029.00;;;27.70
44429;BMP180;30134;47.866;-4.222;2022-10-16T05:46:36;101040.00;;;27.70
44429;BMP180;30134;47.866;-4.222;2022-10-16T05:49:03;101039.00;;;27.70
44429;BMP180;30134;47.866;-4.222;2022-10-16T05:51:29;101032.00;;;27.70
44429;BMP180;30134;47.866;-4.222;2022-10-16T05:53:57;101029.00;;;27.70
44429;BMP180;30134;47.866;-4.222;2022-10-16T05:56:24;101023.00;;;27.70
44429;BMP180;30134;47.866;-4.222;2022-10-16T05:58:50;101022.00;;;27.70
44429;BMP180;30134;47.866;-4.222;2022-10-16T06:01:19;101013.00;;;27.70
44429;BMP180;30134;47.866;-4.222;2022-10-16T06:03:46;101011.00;;;27.70
44429;BMP180;30134;47.866;-4.222;2022-10-16T06:06:15;101004.00;;;27.70
44429;BMP180;30134;47.866;-4.222;2022-10-16T06:08:46;101001.00;;;27.70
44429;BMP180;30134;47.866;-4.222;2022-10-16T06:11:16;100995.00;;;27.70
44429;BMP180;30134;47.866;-4.222;2022-10-16T06:13:43;101003.00;;;27.70
44429;BMP180;30134;47.866;-4.222;2022-10-16T06:16:12;100993.00;;;27.70
44429;BMP180;30134;47.866;-4.222;2022-10-16T06:18:39;101001.00;;;27.70
44429;BMP180;30134;47.866;-4.222;2022-10-16T06:21:21;101002.00;;;27.70
44429;BMP180;30134;47.866;-4.222;2022-10-16T06:23:48;101007.00;;;27.70
44429;BMP180;30134;47.866;-4.222;2022-10-16T06:26:19;101002.00;;;27.70
44429;BMP180;30134;47.866;-4.222;2022-10-16T06:28:46;100997.00;;;27.70
44429;BMP180;30134;47.866;-4.222;2022-10-16T06:31:13;101005.00;;;27.70
44429;BMP180;30134;47.866;-4.222;2022-10-16T06:33:40;101001.00;;;27.70
44429;BMP180;30134;47.866;-4.222;2022-10-16T06:36:14;101001.00;;;27.70
44429;BMP180;30134;47.866;-4.222;2022-10-16T06:38:41;101002.00;;;27.70
44429;BMP180;30134;47.866;-4.222;2022-10-16T06:41:15;101012.00;;;27.70
44429;BMP180;30134;47.866;-4.222;2022-10-16T06:43:42;101015.00;;;27.70
44429;BMP180;30134;47.866;-4.222;2022-10-16T06:46:12;101006.00;;;27.70
44429;BMP180;30134;47.866;-4.222;2022-10-16T06:48:39;101018.00;;;27.70
44429;BMP180;30134;47.866;-4.222;2022-10-16T06:53:41;101003.00;;;27.70
44429;BMP180;30134;47.866;-4.222;2022-10-16T06:56:25;100995.00;;;27.70
44429;BMP180;30134;47.866;-4.222;2022-10-16T06:58:53;100990.00;;;27.70
44429;BMP180;30134;47.866;-4.222;2022-10-16T07:01:22;100992.00;;;27.70
44429;BMP180;30134;47.866;-4.222;2022-10-16T07:03:50;100991.00;;;27.60
44429;BMP180;30134;47.866;-4.222;2022-10-16T07:06:20;100995.00;;;27.60
44429;BMP180;30134;47.866;-4.222;2022-10-16T07:08:48;100997.00;;;27.70
44429;BMP180;30134;47.866;-4.222;2022-10-16T07:11:17;100994.00;;;27.60
44429;BMP180;30134;47.866;-4.222;2022-10-16T07:13:45;100995.00;;;27.60
44429;BMP180;30134;47.866;-4.222;2022-10-16T07:16:18;100987.00;;;27.60
44429;BMP180;30134;47.866;-4.222;2022-10-16T07:18:45;100988.00;;;27.60
44429;BMP180;30134;47.866;-4.222;2022-10-16T07:21:16;100996.00;;;27.60
44429;BMP180;30134;47.866;-4.222;2022-10-16T07:23:43;100992.00;;;27.60
44429;BMP180;30134;47.866;-4.222;2022-10-16T07:26:11;100984.00;;;27.60
44429;BMP180;30134;47.866;-4.222;2022-10-16T07:28:38;100983.00;;;27.60
44429;BMP180;30134;47.866;-4.222;2022-10-16T07:31:14;100985.00;;;27.60
44429;BMP180;30134;47.866;-4.222;2022-10-16T07:33:42;100990.00;;;27.60
44429;BMP180;30134;47.866;-4.222;2022-10-16T07:36:11;100994.00;;;27.60
44429;BMP180;30134;47.866;-4.222;2022-10-16T07:38:38;100990.00;;;27.60
44429;BMP180;30134;47.866;-4.222;2022-10-16T07:41:07;100985.00;;;27.60
44429;BMP180;30134;47.866;-4.222;2022-10-16T07:43:33;100980.00;;;27.60
44429;BMP180;30134;47.866;-4.222;2022-10-16T07:46:00;100973.00;;;27.60
44429;BMP180;30134;47.866;-4.222;2022-10-16T07:48:32;100971.00;;;27.60
44429;BMP180;30134;47.866;-4.222;2022-10-16T07:51:00;100973.00;;;27.60
44429;BMP180;30134;47.866;-4.222;2022-10-16T07:53:28;100976.00;;;27.60
44429;BMP180;30134;47.866;-4.222;2022-10-16T07:56:02;100981.00;;;27.60
44429;BMP180;30134;47.866;-4.222;2022-10-16T07:58:28;100980.00;;;27.60
44429;BMP180;30134;47.866;-4.222;2022-10-16T08:00:56;100985.00;;;27.60
44429;BMP180;30134;47.866;-4.222;2022-10-16T08:03:23;100981.00;;;27.60
44429;BMP180;30134;47.866;-4.222;2022-10-16T08:05:49;100981.00;;;27.60
44429;BMP180;30134;47.866;-4.222;2022-10-16T08:08:17;100985.00;;;27.60
44429;BMP180;30134;47.866;-4.222;2022-10-16T08:10:44;100974.00;;;27.60
44429;BMP180;30134;47.866;-4.222;2022-10-16T08:13:10;100976.00;;;27.60
44429;BMP180;30134;47.866;-4.222;2022-10-16T08:15:37;100973.00;;;27.60
44429;BMP180;30134;47.866;-4.222;2022-10-16T08:18:05;100978.00;;;27.60
44429;BMP180;30134;47.866;-4.222;2022-10-16T08:20:32;100977.00;;;27.60
44429;BMP180;30134;47.866;-4.222;2022-10-16T08:23:02;100974.00;;;27.60
44429;BMP180;30134;47.866;-4.222;2022-10-16T08:25:28;100978.00;;;27.60
44429;BMP180;30134;47.866;-4.222;2022-10-16T08:27:54;100977.00;;;27.60
44429;BMP180;30134;47.866;-4.222;2022-10-16T08:30:23;100970.00;;;27.60
44429;BMP180;30134;47.866;-4.222;2022-10-16T08:32:49;100969.00;;;27.60
44429;BMP180;30134;47.866;-4.222;2022-10-16T08:35:16;100969.00;;;27.60
44429;BMP180;30134;47.866;-4.222;2022-10-16T08:37:43;100966.00;;;27.60
44429;BMP180;30134;47.866;-4.222;2022-10-16T08:40:24;100965.00;;;27.60
44429;BMP180;30134;47.866;-4.222;2022-10-16T08:48:53;100959.00;;;27.60
44429;BMP180;30134;47.866;-4.222;2022-10-16T08:51:40;100960.00;;;27.70
44429;BMP180;30134;47.866;-4.222;2022-10-16T08:54:35;100952.00;;;27.70
44429;BMP180;30134;47.866;-4.222;2022-10-16T08:57:24;100948.00;;;27.70
44429;BMP180;30134;47.866;-4.222;2022-10-16T08:59:53;100953.00;;;27.70
44429;BMP180;30134;47.866;-4.222;2022-10-16T09:02:59;100958.00;;;27.70
44429;BMP180;30134;47.866;-4.222;2022-10-16T09:12:14;100950.00;;;27.60
44429;BMP180;30134;47.866;-4.222;2022-10-16T09:15:00;100940.00;;;27.60
44429;BMP180;30134;47.866;-4.222;2022-10-16T09:17:56;100936.00;;;27.60
44429;BMP180;30134;47.866;-4.222;2022-10-16T09:23:35;100935.00;;;27.60
44429;BMP180;30134;47.866;-4.222;2022-10-16T09:26:03;100932.00;;;27.60
44429;BMP180;30134;47.866;-4.222;2022-10-16T09:28:30;100937.00;;;27.60
44429;BMP180;30134;47.866;-4.222;2022-10-16T09:30:56;100947.00;;;27.60
44429;BMP180;30134;47.866;-4.222;2022-10-16T09:33:28;100932.00;;;27.60
44429;BMP180;30134;47.866;-4.222;2022-10-16T09:35:56;100935.00;;;27.60
44429;BMP180;30134;47.866;-4.222;2022-10-16T09:38:29;100952.00;;;27.60
44429;BMP180;30134;47.866;-4.222;2022-10-16T09:40:58;100959.00;;;27.60
44429;BMP180;30134;47.866;-4.222;2022-10-16T09:43:33;100957.00;;;27.60
44429;BMP180;30134;47.866;-4.222;2022-10-16T09:46:19;100959.00;;;27.60
44429;BMP180;30134;47.866;-4.222;2022-10-16T09:48:51;100952.00;;;27.60
44429;BMP180;30134;47.866;-4.222;2022-10-16T09:51:30;100957.00;;;27.60
44429;BMP180;30134;47.866;-4.222;2022-10-16T09:53:59;100953.00;;;27.60
44429;BMP180;30134;47.866;-4.222;2022-10-16T09:56:29;100960.00;;;27.60
44429;BMP180;30134;47.866;-4.222;2022-10-16T09:59:01;100972.00;;;27.60
44429;BMP180;30134;47.866;-4.222;2022-10-16T10:01:52;100956.00;;;27.60
44429;BMP180;30134;47.866;-4.222;2022-10-16T10:04:21;100952.00;;;27.60
44429;BMP180;30134;47.866;-4.222;2022-10-16T10:06:56;100940.00;;;27.60
44429;BMP180;30134;47.866;-4.222;2022-10-16T10:09:38;100939.00;;;27.60
44429;BMP180;30134;47.866;-4.222;2022-10-16T10:12:06;100928.00;;;27.60
44429;BMP180;30134;47.866;-4.222;2022-10-16T10:14:52;100916.00;;;27.60
44429;BMP180;30134;47.866;-4.222;2022-10-16T10:17:21;100911.00;;;27.60
44429;BMP180;30134;47.866;-4.222;2022-10-16T10:31:00;100948.00;;;27.60
44429;BMP180;30134;47.866;-4.222;2022-10-16T10:36:40;100931.00;;;27.60
44429;BMP180;30134;47.866;-4.222;2022-10-16T10:39:24;100927.00;;;27.50
44429;BMP180;30134;47.866;-4.222;2022-10-16T10:45:26;100918.00;;;27.50
44429;BMP180;30134;47.866;-4.222;2022-10-16T10:48:49;100903.00;;;27.50
44429;BMP180;30134;47.866;-4.222;2022-10-16T10:57:23;100907.00;;;27.50
44429;BMP180;30134;47.866;-4.222;2022-10-16T11:06:11;100907.00;;;27.60
44429;BMP180;30134;47.866;-4.222;2022-10-16T11:11:36;100903.00;;;27.50
44429;BMP180;30134;47.866;-4.222;2022-10-16T11:17:01;100885.00;;;27.50
44429;BMP180;30134;47.866;-4.222;2022-10-16T11:25:33;100863.00;;;27.60
44429;BMP180;30134;47.866;-4.222;2022-10-16T11:30:28;100862.00;;;27.60
44429;BMP180;30134;47.866;-4.222;2022-10-16T11:35:59;100844.00;;;27.60
44429;BMP180;30134;47.866;-4.222;2022-10-16T11:41:32;100844.00;;;27.60
44429;BMP180;30134;47.866;-4.222;2022-10-16T11:44:50;100846.00;;;27.60
44429;BMP180;30134;47.866;-4.222;2022-10-16T11:47:29;100847.00;;;27.60
44429;BMP180;30134;47.866;-4.222;2022-10-16T11:50:12;100843.00;;;27.60
44429;BMP180;30134;47.866;-4.222;2022-10-16T11:52:55;100833.00;;;27.60
44429;BMP180;30134;47.866;-4.222;2022-10-16T11:55:29;100813.00;;;27.60
44429;BMP180;30134;47.866;-4.222;2022-10-16T11:58:22;100832.00;;;27.60
44429;BMP180;30134;47.866;-4.222;2022-10-16T12:05:00;100816.00;;;27.60
44429;BMP180;30134;47.866;-4.222;2022-10-16T12:09:34;100838.00;;;27.60
44429;BMP180;30134;47.866;-4.222;2022-10-16T12:12:00;100832.00;;;27.60
44429;BMP180;30134;47.866;-4.222;2022-10-16T12:14:37;100830.00;;;27.60
44429;BMP180;30134;47.866;-4.222;2022-10-16T12:17:45;100824.00;;;27.60
44429;BMP180;30134;47.866;-4.222;2022-10-16T12:22:55;100807.00;;;27.60
44429;BMP180;30134;47.866;-4.222;2022-10-16T12:25:26;100810.00;;;27.60
44429;BMP180;30134;47.866;-4.222;2022-10-16T12:27:55;100807.00;;;27.60
44429;BMP180;30134;47.866;-4.222;2022-10-16T12:30:28;100799.00;;;27.60
44429;BMP180;30134;47.866;-4.222;2022-10-16T12:33:06;100793.00;;;27.60
44429;BMP180;30134;47.866;-4.222;2022-10-16T12:35:46;100793.00;;;27.60
44429;BMP180;30134;47.866;-4.222;2022-10-16T12:38:29;100793.00;;;27.60
44429;BMP180;30134;47.866;-4.222;2022-10-16T12:41:05;100793.00;;;27.60
44429;BMP180;30134;47.866;-4.222;2022-10-16T12:43:42;100783.00;;;27.60
44429;BMP180;30134;47.866;-4.222;2022-10-16T12:48:38;100773.00;;;27.60
44429;BMP180;30134;47.866;-4.222;2022-10-16T12:54:36;100794.00;;;27.60
44429;BMP180;30134;47.866;-4.222;2022-10-16T13:02:48;100791.00;;;27.60
44429;BMP180;30134;47.866;-4.222;2022-10-16T13:28:11;100785.00;;;27.60
44429;BMP180;30134;47.866;-4.222;2022-10-16T13:30:55;100778.00;;;27.60
44429;BMP180;30134;47.866;-4.222;2022-10-16T13:33:42;100779.00;;;27.60
44429;BMP180;30134;47.866;-4.222;2022-10-16T13:36:46;100778.00;;;27.60
44429;BMP180;30134;47.866;-4.222;2022-10-16T13:39:30;100768.00;;;27.60
44429;BMP180;30134;47.866;-4.222;2022-10-16T13:42:24;100770.00;;;27.70
44429;BMP180;30134;47.866;-4.222;2022-10-16T13:44:53;100764.00;;;27.70
44429;BMP180;30134;47.866;-4.222;2022-10-16T13:47:23;100768.00;;;27.70
44429;BMP180;30134;47.866;-4.222;2022-10-16T13:50:17;100770.00;;;27.70
44429;BMP180;30134;47.866;-4.222;2022-10-16T13:52:43;100770.00;;;27.70
44429;BMP180;30134;47.866;-4.222;2022-10-16T13:55:18;100765.00;;;27.70
44429;BMP180;30134;47.866;-4.222;2022-10-16T13:57:44;100763.00;;;27.70
44429;BMP180;30134;47.866;-4.222;2022-10-16T14:00:26;100755.00;;;27.70
44429;BMP180;30134;47.866;-4.222;2022-10-16T14:03:15;100759.00;;;27.70
44429;BMP180;30134;47.866;-4.222;2022-10-16T14:05:54;100756.00;;;27.70
44429;BMP180;30134;47.866;-4.222;2022-10-16T14:08:23;100750.00;;;27.70
44429;BMP180;30134;47.866;-4.222;2022-10-16T14:10:53;100751.00;;;27.70
44429;BMP180;30134;47.866;-4.222;2022-10-16T14:13:37;100754.00;;;27.70
44429;BMP180;30134;47.866;-4.222;2022-10-16T14:16:10;100759.00;;;27.70
44429;BMP180;30134;47.866;-4.222;2022-10-16T14:18:39;100766.00;;;27.70
44429;BMP180;30134;47.866;-4.222;2022-10-16T14:21:13;100758.00;;;27.70
44429;BMP180;30134;47.866;-4.222;2022-10-16T14:23:41;100753.00;;;27.70
44429;BMP180;30134;47.866;-4.222;2022-10-16T14:28:36;100749.00;;;27.70
44429;BMP180;30134;47.866;-4.222;2022-10-16T14:31:32;100750.00;;;27.70
44429;BMP180;30134;47.866;-4.222;2022-10-16T14:33:59;100754.00;;;27.70
44429;BMP180;30134;47.866;-4.222;2022-10-16T14:36:28;100758.00;;;27.70
44429;BMP180;30134;47.866;-4.222;2022-10-16T14:39:04;100773.00;;;27.70
44429;BMP180;30134;47.866;-4.222;2022-10-16T14:41:35;100765.00;;;27.70
44429;BMP180;30134;47.866;-4.222;2022-10-16T14:44:10;100748.00;;;27.70
44429;BMP180;30134;47.866;-4.222;2022-10-16T14:46:41;100753.00;;;27.70
44429;BMP180;30134;47.866;-4.222;2022-10-16T14:51:39;100754.00;;;27.70
44429;BMP180;30134;47.866;-4.222;2022-10-16T14:54:12;100758.00;;;27.80
44429;BMP180;30134;47.866;-4.222;2022-10-16T14:56:57;100751.00;;;27.80
44429;BMP180;30134;47.866;-4.222;2022-10-16T14:59:50;100761.00;;;27.70
44429;BMP180;30134;47.866;-4.222;2022-10-16T15:05:16;100753.00;;;27.80
44429;BMP180;30134;47.866;-4.222;2022-10-16T15:07:43;100762.00;;;27.80
44429;BMP180;30134;47.866;-4.222;2022-10-16T15:10:11;100759.00;;;27.80
44429;BMP180;30134;47.866;-4.222;2022-10-16T15:12:39;100763.00;;;27.80
44429;BMP180;30134;47.866;-4.222;2022-10-16T15:17:54;100753.00;;;27.80
44429;BMP180;30134;47.866;-4.222;2022-10-16T15:20:27;100756.00;;;27.80
44429;BMP180;30134;47.866;-4.222;2022-10-16T15:22:53;100766.00;;;27.80
44429;BMP180;30134;47.866;-4.222;2022-10-16T15:25:42;100756.00;;;27.80
44429;BMP180;30134;47.866;-4.222;2022-10-16T15:28:09;100760.00;;;27.80
44429;BMP180;30134;47.866;-4.222;2022-10-16T15:30:37;100757.00;;;27.80
44429;BMP180;30134;47.866;-4.222;2022-10-16T15:33:05;100764.00;;;27.80
44429;BMP180;30134;47.866;-4.222;2022-10-16T15:35:34;100746.00;;;27.80
44429;BMP180;30134;47.866;-4.222;2022-10-16T15:38:00;100749.00;;;27.80
44429;BMP180;30134;47.866;-4.222;2022-10-16T15:40:26;100760.00;;;27.80
44429;BMP180;30134;47.866;-4.222;2022-10-16T15:42:52;100752.00;;;27.80
44429;BMP180;30134;47.866;-4.222;2022-10-16T15:45:18;100760.00;;;27.80
44429;BMP180;30134;47.866;-4.222;2022-10-16T15:47:45;100748.00;;;27.80
44429;BMP180;30134;47.866;-4.222;2022-10-16T15:50:14;100741.00;;;27.80
44429;BMP180;30134;47.866;-4.222;2022-10-16T15:52:42;100742.00;;;27.80
44429;BMP180;30134;47.866;-4.222;2022-10-16T15:55:11;100744.00;;;27.80
44429;BMP180;30134;47.866;-4.222;2022-10-16T15:57:38;100746.00;;;27.80
44429;BMP180;30134;47.866;-4.222;2022-10-16T16:00:12;100750.00;;;27.80
44429;BMP180;30134;47.866;-4.222;2022-10-16T16:02:39;100742.00;;;27.80
44429;BMP180;30134;47.866;-4.222;2022-10-16T16:05:08;100745.00;;;27.80
44429;BMP180;30134;47.866;-4.222;2022-10-16T16:07:38;100746.00;;;27.80
44429;BMP180;30134;47.866;-4.222;2022-10-16T16:10:11;100763.00;;;27.80
44429;BMP180;30134;47.866;-4.222;2022-10-16T16:12:38;100761.00;;;27.80
44429;BMP180;30134;47.866;-4.222;2022-10-16T16:15:07;100763.00;;;27.80
44429;BMP180;30134;47.866;-4.222;2022-10-16T16:17:34;100764.00;;;27.80
44429;BMP180;30134;47.866;-4.222;2022-10-16T16:20:01;100769.00;;;27.80
44429;BMP180;30134;47.866;-4.222;2022-10-16T16:22:27;100767.00;;;27.80
44429;BMP180;30134;47.866;-4.222;2022-10-16T16:24:53;100771.00;;;27.80
44429;BMP180;30134;47.866;-4.222;2022-10-16T16:27:19;100770.00;;;27.80